KLTS/LTS METAR and TAF weather

Enter ICAO airport designator
Station Type Date Time Source
KLTS METAR 2021/05/13 05:56 UTC NOAA

KLTS 130556Z AUTO 36004KT 10SM CLR 09/07 A3033 RMK AO2 SLP269 T00890065 10179 20088 401920078 52010 $


Station Type Date Time Source
KLTS Decoded METAR 2021/05/13 05:56 UTC NOAA

Altus Air Force Base, OK, United States (KLTS) 34-39N 099-16W 420M
May 13, 2021 - 01:56 AM EDT / 2021.05.13 0556 UTC
Wind: from the N (360 degrees) at 5 MPH (4 KT):0
Visibility: 10 mile(s):0
Sky conditions: clear
Temperature: 48.0 F (8.9 C)
Dew Point: 43.7 F (6.5 C)
Relative Humidity: 84%
Pressure (altimeter): 30.33 in. Hg (1027 hPa)
Pressure tendency: 0.03 inches (1.0 hPa) higher than three hours ago
ob: KLTS 130556Z AUTO 36004KT 10SM CLR 09/07 A3033 RMK AO2 SLP269 T00890065 10179 20088 401920078 52010
cycle: 6

Station Type Date Time Source
KLTS TAF 2021/05/13 01:12 UTC NOAA

TAF KLTS 130100Z 1301/1407 05006KT 9999 FEW035 SCT050 QNH3026INS
BECMG 1308/1309 VRB06KT 9999 BKN022 OVC035 QNH3032INS
BECMG 1315/1316 VRB06KT 9999 BKN030 OVC045 QNH3019INS
BECMG 1322/1323 16006KT 9999 SCT035 BKN100 QNH3018INS
BECMG 1402/1403 15010KT 9999 SCT020 BKN030 QNH3019INS TX21/1321Z TN13/1312Z

Example: see airport list